Time;durP1;ratioP1;P1;durP2;ratioP2;P2;SDS_P1;SDS_P2;PMS_P1;PMS_P2;Temp;Humidity;BMP_temperature;BMP_pressure;BME280_temperature;BME280_humidity;BME280_pressure;Samples;Min_cycle;Max_cycle;Signal;HPM_P1;HPM_P2
2021/07/09 00:01:30;;;;;;;15.47;14.33;;;16.40;99.90;;;;;;4985883;28;20675;-75
2021/07/09 00:03:57;;;;;;;15.53;14.33;;;16.40;99.90;;;;;;4978928;28;20206;-76
2021/07/09 00:06:24;;;;;;;14.77;13.80;;;16.30;99.90;;;;;;4984817;28;20197;-77
2021/07/09 00:08:51;;;;;;;15.10;14.10;;;16.30;99.90;;;;;;4990524;28;20239;-76
2021/07/09 00:11:19;;;;;;;14.80;13.90;;;16.30;99.90;;;;;;4987235;28;20248;-75
2021/07/09 00:13:46;;;;;;;16.17;14.80;;;16.30;99.90;;;;;;4983065;28;20294;-76
2021/07/09 00:16:14;;;;;;;15.53;14.47;;;16.20;99.90;;;;;;4987228;28;20200;-76
2021/07/09 00:18:43;;;;;;;15.63;14.43;;;16.20;99.90;;;;;;4982363;28;20221;-75
2021/07/09 00:21:10;;;;;;;15.90;14.57;;;16.20;99.90;;;;;;4983790;28;20690;-75
2021/07/09 00:23:37;;;;;;;14.37;13.47;;;16.20;99.90;;;;;;4986067;28;20205;-76
2021/07/09 00:26:04;;;;;;;15.10;14.10;;;16.20;99.90;;;;;;4986853;28;20227;-75
2021/07/09 00:28:31;;;;;;;15.70;14.60;;;16.20;99.90;;;;;;4977234;28;20227;-76
2021/07/09 00:30:58;;;;;;;14.60;13.70;;;16.10;99.90;;;;;;4975724;28;20718;-76
2021/07/09 00:33:25;;;;;;;15.90;14.70;;;16.10;99.90;;;;;;4985390;28;20234;-75
2021/07/09 00:35:53;;;;;;;15.50;14.23;;;16.10;99.90;;;;;;4984934;28;20527;-76
2021/07/09 00:38:20;;;;;;;15.40;14.03;;;16.10;99.90;;;;;;4986477;28;20241;-76
2021/07/09 00:40:47;;;;;;;15.00;14.00;;;16.00;99.90;;;;;;4982288;28;20206;-75
2021/07/09 00:43:14;;;;;;;15.00;14.10;;;16.00;99.90;;;;;;4985825;28;20199;-76
2021/07/09 00:45:41;;;;;;;14.77;13.93;;;16.00;99.90;;;;;;4985336;28;20223;-76
2021/07/09 00:48:08;;;;;;;15.10;14.10;;;16.00;99.90;;;;;;4982789;28;20225;-76
2021/07/09 00:50:35;;;;;;;15.07;14.17;;;16.00;99.90;;;;;;4990731;28;20185;-76
2021/07/09 00:53:03;;;;;;;15.40;14.40;;;16.00;99.90;;;;;;4986931;28;20189;-76
2021/07/09 00:55:30;;;;;;;15.07;14.17;;;16.00;99.90;;;;;;4982947;28;20209;-75
2021/07/09 00:58:00;;;;;;;15.23;14.13;;;16.00;99.90;;;;;;4983460;28;20193;-75
2021/07/09 01:00:28;;;;;;;15.10;14.10;;;16.00;99.90;;;;;;4974291;28;20306;-75
2021/07/09 01:02:56;;;;;;;14.90;13.90;;;16.00;99.90;;;;;;4984859;28;20202;-76
2021/07/09 01:05:23;;;;;;;15.03;13.73;;;16.10;99.90;;;;;;4983238;28;20202;-76
2021/07/09 01:07:50;;;;;;;14.63;13.57;;;16.00;99.90;;;;;;4975087;28;20194;-76
2021/07/09 01:10:20;;;;;;;13.80;12.90;;;16.00;99.90;;;;;;4982498;28;20309;-76
2021/07/09 01:12:47;;;;;;;14.83;13.93;;;16.00;99.90;;;;;;4985217;28;20205;-75
2021/07/09 01:15:16;;;;;;;14.87;13.87;;;16.00;99.90;;;;;;4981559;28;20202;-76
2021/07/09 01:17:43;;;;;;;14.50;13.37;;;16.00;99.90;;;;;;4984022;28;20658;-76
2021/07/09 01:20:12;;;;;;;14.80;13.90;;;16.00;99.90;;;;;;4983512;28;20289;-76
2021/07/09 01:22:42;;;;;;;14.57;13.50;;;16.00;99.90;;;;;;4980548;28;20254;-76
2021/07/09 01:25:12;;;;;;;15.00;14.00;;;16.00;99.90;;;;;;4981720;28;20190;-76
2021/07/09 01:27:41;;;;;;;14.70;13.73;;;16.00;99.90;;;;;;4979706;28;20198;-76
2021/07/09 01:30:11;;;;;;;14.90;14.00;;;16.00;99.90;;;;;;4984214;28;20240;-76
2021/07/09 01:32:38;;;;;;;14.43;13.53;;;16.00;99.90;;;;;;4982324;28;20542;-76
2021/07/09 01:35:06;;;;;;;13.60;12.80;;;16.00;99.90;;;;;;4982044;28;20198;-76
2021/07/09 01:37:33;;;;;;;14.40;13.40;;;16.00;99.90;;;;;;4983207;28;20199;-76
2021/07/09 01:40:00;;;;;;;14.13;13.30;;;15.90;99.90;;;;;;4980595;28;20259;-76
2021/07/09 01:42:29;;;;;;;15.10;14.10;;;15.90;99.90;;;;;;4988146;28;20196;-75
2021/07/09 01:44:55;;;;;;;13.80;13.00;;;16.00;99.90;;;;;;4984855;28;20202;-76
2021/07/09 01:47:22;;;;;;;14.30;13.40;;;15.90;99.90;;;;;;4986017;28;20256;-76
2021/07/09 01:49:52;;;;;;;14.40;13.50;;;15.90;99.90;;;;;;4979777;28;20638;-76
2021/07/09 01:52:20;;;;;;;14.97;14.03;;;15.90;99.90;;;;;;4985184;28;20260;-76
2021/07/09 01:54:48;;;;;;;14.47;13.57;;;15.90;99.90;;;;;;4981227;28;20198;-77
2021/07/09 01:57:15;;;;;;;14.27;13.37;;;15.90;99.90;;;;;;4982129;28;20268;-76
2021/07/09 01:59:43;;;;;;;14.20;13.40;;;15.80;99.90;;;;;;4981937;28;20247;-75
2021/07/09 02:02:11;;;;;;;15.10;14.20;;;15.80;99.90;;;;;;4974467;28;20205;-76
2021/07/09 02:04:46;;;;;;;15.10;14.10;;;15.80;99.90;;;;;;4980464;28;20602;-76
2021/07/09 02:07:12;;;;;;;14.97;13.87;;;15.80;99.90;;;;;;4979854;28;20722;-76
2021/07/09 02:09:42;;;;;;;15.80;14.80;;;15.90;99.90;;;;;;4983108;28;20230;-76
2021/07/09 02:12:09;;;;;;;14.70;13.77;;;15.90;99.90;;;;;;4977672;28;20197;-76
2021/07/09 02:14:36;;;;;;;15.70;14.50;;;15.80;99.90;;;;;;4984230;28;20729;-76
2021/07/09 02:17:08;;;;;;;14.93;14.03;;;15.80;99.90;;;;;;4980502;28;20189;-76
2021/07/09 02:19:35;;;;;;;15.20;14.20;;;15.80;99.90;;;;;;4978003;28;20616;-76
2021/07/09 02:22:05;;;;;;;14.60;13.70;;;15.80;99.90;;;;;;4979825;28;20221;-76
2021/07/09 02:24:34;;;;;;;14.73;13.83;;;15.70;99.90;;;;;;4980485;28;20248;-76
2021/07/09 02:27:02;;;;;;;17.20;15.63;;;15.80;99.90;;;;;;4981808;28;20193;-76
2021/07/09 02:29:30;;;;;;;15.00;13.90;;;15.70;99.90;;;;;;4980126;28;20269;-75
2021/07/09 02:31:57;;;;;;;15.53;14.53;;;15.70;99.90;;;;;;4980275;28;20198;-77
2021/07/09 02:34:25;;;;;;;15.40;14.37;;;15.70;99.90;;;;;;4984346;28;20338;-76
2021/07/09 02:36:52;;;;;;;15.77;14.67;;;15.60;99.90;;;;;;4983562;28;20265;-75
2021/07/09 02:39:19;;;;;;;15.33;14.23;;;15.70;99.90;;;;;;4979858;28;20207;-76
2021/07/09 02:41:46;;;;;;;15.07;14.17;;;15.60;99.90;;;;;;4981490;28;20218;-77
2021/07/09 02:44:12;;;;;;;16.57;15.17;;;15.60;99.90;;;;;;4979536;28;20197;-80
2021/07/09 02:46:39;;;;;;;16.00;14.90;;;15.70;99.90;;;;;;4971755;28;20225;-80
2021/07/09 02:49:06;;;;;;;15.73;14.63;;;16.10;99.90;;;;;;4971805;28;20245;-80
2021/07/09 02:51:34;;;;;;;14.90;14.00;;;16.20;99.90;;;;;;4980090;28;20210;-80
2021/07/09 02:54:01;;;;;;;14.97;14.00;;;16.10;99.90;;;;;;4977712;28;20194;-79
2021/07/09 02:56:28;;;;;;;15.27;14.37;;;16.00;99.90;;;;;;4973734;28;20197;-78
2021/07/09 02:58:55;;;;;;;17.57;16.17;;;15.90;99.90;;;;;;4974405;28;20220;-78
2021/07/09 03:01:22;;;;;;;15.00;14.10;;;16.00;99.90;;;;;;4972344;28;20211;-80
2021/07/09 03:03:49;;;;;;;14.17;13.07;;;15.90;99.90;;;;;;4973823;28;20195;-80
2021/07/09 03:06:16;;;;;;;13.87;12.80;;;16.00;99.90;;;;;;4972487;28;20260;-80
2021/07/09 03:08:44;;;;;;;15.00;14.00;;;15.90;99.90;;;;;;4994519;23;20222;-76
2021/07/09 03:11:11;;;;;;;17.20;16.00;;;15.90;99.90;;;;;;4991668;28;20221;-80
2021/07/09 03:13:38;;;;;;;15.67;14.77;;;15.80;99.90;;;;;;5000039;28;20203;-79
2021/07/09 03:16:05;;;;;;;15.33;14.30;;;15.70;99.90;;;;;;5001689;28;20197;-79
2021/07/09 03:18:32;;;;;;;15.30;14.30;;;15.70;99.90;;;;;;4998900;28;20268;-80
2021/07/09 03:20:59;;;;;;;14.50;13.50;;;15.70;99.90;;;;;;4985471;28;20209;-80
2021/07/09 03:23:26;;;;;;;15.40;14.20;;;15.60;99.90;;;;;;4981838;28;20208;-79
2021/07/09 03:25:57;;;;;;;14.83;13.90;;;15.60;99.90;;;;;;4982776;28;20194;-80
2021/07/09 03:28:24;;;;;;;14.60;13.60;;;15.60;99.90;;;;;;4982432;28;20726;-82
2021/07/09 03:30:51;;;;;;;15.07;14.07;;;15.50;99.90;;;;;;4985088;28;20736;-83
2021/07/09 03:33:18;;;;;;;14.30;13.30;;;15.50;99.90;;;;;;4984832;28;20205;-82
2021/07/09 03:35:45;;;;;;;14.03;13.13;;;15.50;99.90;;;;;;4988819;28;20197;-83
2021/07/09 03:38:12;;;;;;;15.20;14.20;;;15.50;99.90;;;;;;4987053;28;20193;-82
2021/07/09 03:40:39;;;;;;;15.23;14.17;;;15.60;99.90;;;;;;4986140;28;20705;-82
2021/07/09 03:43:08;;;;;;;15.97;14.97;;;15.60;99.90;;;;;;4981912;28;20214;-82
2021/07/09 03:45:34;;;;;;;15.50;14.60;;;15.70;99.90;;;;;;4979546;28;20714;-83
2021/07/09 03:48:02;;;;;;;15.40;14.40;;;15.70;99.90;;;;;;4987519;28;20560;-82
2021/07/09 03:50:28;;;;;;;15.43;14.33;;;15.70;99.90;;;;;;4982404;28;20213;-84
2021/07/09 03:52:55;;;;;;;14.87;13.87;;;15.80;99.90;;;;;;4991465;28;20281;-83
2021/07/09 03:55:22;;;;;;;14.90;14.00;;;15.70;99.90;;;;;;4983238;28;20539;-83
2021/07/09 03:57:49;;;;;;;15.13;14.20;;;15.60;99.90;;;;;;4975758;28;20611;-83
2021/07/09 04:00:18;;;;;;;14.90;14.00;;;15.60;99.90;;;;;;4982956;28;20224;-83
2021/07/09 04:02:45;;;;;;;14.97;14.07;;;15.50;99.90;;;;;;4979476;28;20582;-83
2021/07/09 04:05:13;;;;;;;15.87;14.87;;;15.50;99.90;;;;;;4986319;28;20216;-83
2021/07/09 04:07:40;;;;;;;16.20;15.00;;;15.50;99.90;;;;;;4979146;28;20209;-83
2021/07/09 04:10:08;;;;;;;15.50;14.50;;;15.50;99.90;;;;;;4987235;28;20280;-83
2021/07/09 04:12:35;;;;;;;15.93;14.93;;;15.50;99.90;;;;;;4980439;28;20196;-84
2021/07/09 04:15:01;;;;;;;16.47;15.33;;;15.60;99.90;;;;;;4986019;28;20201;-83
2021/07/09 04:17:30;;;;;;;15.80;14.80;;;15.80;99.90;;;;;;4983052;28;20221;-83
2021/07/09 04:19:57;;;;;;;16.47;15.37;;;15.90;99.90;;;;;;4984796;28;20225;-82
2021/07/09 04:22:23;;;;;;;16.00;14.90;;;15.90;99.90;;;;;;4982304;28;20210;-82
2021/07/09 04:24:50;;;;;;;15.97;14.70;;;15.70;99.90;;;;;;4984853;28;20199;-83
2021/07/09 04:27:17;;;;;;;15.90;14.80;;;15.90;99.90;;;;;;4980711;28;20646;-83
2021/07/09 04:29:44;;;;;;;15.47;14.47;;;15.90;99.90;;;;;;4985037;28;20586;-84
2021/07/09 04:32:11;;;;;;;15.50;14.27;;;15.90;99.90;;;;;;4987318;28;20197;-83
2021/07/09 04:34:39;;;;;;;15.27;14.27;;;15.70;99.90;;;;;;4991228;28;20201;-83
2021/07/09 04:37:08;;;;;;;15.30;14.30;;;15.60;99.90;;;;;;4993241;28;20208;-84
2021/07/09 04:39:37;;;;;;;15.80;14.80;;;15.60;99.90;;;;;;4993500;28;20593;-83
2021/07/09 04:42:05;;;;;;;15.27;14.23;;;15.60;99.90;;;;;;4996790;28;20216;-84
2021/07/09 04:44:32;;;;;;;15.43;14.33;;;15.60;99.90;;;;;;4994158;28;20201;-84
2021/07/09 04:46:59;;;;;;;15.80;14.90;;;15.70;99.90;;;;;;4995174;28;20280;-84
2021/07/09 04:49:26;;;;;;;15.37;14.37;;;15.60;99.90;;;;;;4993856;28;20281;-83
2021/07/09 04:51:54;;;;;;;15.20;14.30;;;15.60;99.90;;;;;;4992895;28;20198;-84
2021/07/09 04:54:22;;;;;;;15.90;14.70;;;15.60;99.90;;;;;;4989067;28;20294;-84
2021/07/09 04:56:52;;;;;;;15.43;14.53;;;15.70;99.90;;;;;;4986265;28;20621;-83
2021/07/09 04:59:19;;;;;;;16.30;15.20;;;15.60;99.90;;;;;;4996524;28;20579;-83
2021/07/09 05:01:45;;;;;;;15.37;14.37;;;15.70;99.90;;;;;;4989092;28;20244;-83
2021/07/09 05:04:12;;;;;;;15.83;14.73;;;15.70;99.90;;;;;;4988881;28;20248;-84
2021/07/09 05:06:39;;;;;;;15.50;14.60;;;15.80;99.90;;;;;;4993489;28;20660;-84
2021/07/09 05:09:09;;;;;;;15.27;14.37;;;15.90;99.90;;;;;;4994212;28;20236;-84
2021/07/09 05:11:37;;;;;;;15.20;14.20;;;16.00;99.90;;;;;;4992622;28;20194;-83
2021/07/09 05:14:04;;;;;;;15.30;14.30;;;15.90;99.90;;;;;;4991555;28;20209;-84
2021/07/09 05:16:34;;;;;;;15.43;14.50;;;15.80;99.90;;;;;;4987343;28;20286;-81
2021/07/09 05:19:09;;;;;;;15.90;14.80;;;15.70;99.90;;;;;;4989112;28;20216;-81
2021/07/09 05:25:45;;;;;;;15.60;14.50;;;15.70;99.90;;;;;;4945558;28;20212;-82
2021/07/09 05:28:14;;;;;;;16.13;15.13;;;15.70;99.90;;;;;;4984993;28;20193;-78
2021/07/09 05:30:41;;;;;;;16.07;14.87;;;15.60;99.90;;;;;;4987839;28;20213;-81
2021/07/09 05:33:09;;;;;;;15.60;14.63;;;15.50;99.90;;;;;;4984084;28;20655;-83
2021/07/09 05:35:37;;;;;;;15.80;14.83;;;15.40;99.90;;;;;;4986384;28;20202;-80
2021/07/09 05:38:07;;;;;;;15.57;14.67;;;15.40;99.90;;;;;;4993945;28;20189;-83
2021/07/09 05:40:33;;;;;;;15.63;14.50;;;15.40;99.90;;;;;;4998760;28;20218;-82
2021/07/09 05:43:02;;;;;;;15.70;14.70;;;15.40;99.90;;;;;;4999280;28;20226;-81
2021/07/09 05:45:29;;;;;;;16.10;15.10;;;15.30;99.90;;;;;;4995872;28;20700;-83
2021/07/09 05:47:56;;;;;;;16.30;15.40;;;15.30;99.90;;;;;;4992415;28;20201;-84
2021/07/09 05:50:25;;;;;;;16.03;15.13;;;15.30;99.90;;;;;;4992737;28;20311;-83
2021/07/09 05:52:54;;;;;;;16.30;15.30;;;15.30;99.90;;;;;;4993121;28;20193;-81
2021/07/09 05:55:22;;;;;;;16.10;15.13;;;15.30;99.90;;;;;;4992540;28;20225;-81
2021/07/09 05:57:49;;;;;;;17.03;16.03;;;15.30;99.90;;;;;;4984161;28;20635;-80
2021/07/09 06:00:35;;;;;;;17.47;16.27;;;15.30;99.90;;;;;;4994685;28;20217;-81
2021/07/09 06:03:54;;;;;;;16.33;15.33;;;15.30;99.90;;;;;;4967182;28;20225;-80
2021/07/09 06:07:21;;;;;;;;;;;;;;;;;;;;;
2021/07/09 06:13:47;;;;;;;;;;;;;;;;;;;;;
2021/07/09 06:20:30;;;;;;;16.20;15.20;;;15.50;99.90;;;;;;4916682;29;20303;-80
2021/07/09 06:27:36;;;;;;;15.07;14.17;;;15.80;99.90;;;;;;4898741;29;20255;-80
2021/07/09 06:42:19;;;;;;;15.13;14.23;;;16.30;99.90;;;;;;4803262;29;20231;-79
2021/07/09 06:45:29;;;;;;;;;;;;;;;;;;;;;
2021/07/09 06:48:57;;;;;;;15.37;14.47;;;16.70;99.90;;;;;;4957456;28;20200;-79
2021/07/09 07:17:58;;;;;;;8.33;7.73;;;17.50;99.90;;;;;;4811596;29;20197;-80
2021/07/09 07:27:56;;;;;;;13.33;12.53;;;17.80;99.90;;;;;;4928975;29;20676;-81
2021/07/09 07:38:33;;;;;;;14.67;13.77;;;18.30;99.90;;;;;;4836989;29;20221;-79
2021/07/09 07:41:05;;;;;;;13.27;12.47;;;18.60;99.90;;;;;;4831740;29;20309;-82
2021/07/09 07:43:52;;;;;;;14.80;13.50;;;18.70;99.90;;;;;;4830095;29;20230;-80
2021/07/09 07:46:30;;;;;;;10.67;9.83;;;18.80;99.90;;;;;;4840042;29;20637;-80
2021/07/09 07:56:30;;;;;;;14.37;13.50;;;19.20;99.90;;;;;;4930722;28;20243;-77
2021/07/09 08:22:19;;;;;;;5.00;4.60;;;20.00;99.90;;;;;;4944189;29;20300;-81
2021/07/09 08:25:19;;;;;;;9.73;9.03;;;20.10;99.90;;;;;;4941260;29;20641;-82
2021/07/09 08:33:56;;;;;;;11.80;11.10;;;20.60;99.90;;;;;;4947599;29;20714;-83
2021/07/09 08:36:32;;;;;;;11.00;10.30;;;20.70;99.90;;;;;;4940596;29;20209;-83
2021/07/09 08:39:18;;;;;;;10.73;10.13;;;20.80;99.90;;;;;;4951012;28;20341;-83
2021/07/09 08:41:55;;;;;;;12.47;11.60;;;21.20;99.90;;;;;;4947725;28;20211;-84
2021/07/09 08:54:28;;;;;;;12.67;11.87;;;22.50;99.90;;;;;;4925991;29;20191;-84
2021/07/09 08:57:04;;;;;;;13.80;12.90;;;21.90;99.90;;;;;;4954256;28;20199;-83
2021/07/09 09:10:37;;;;;;;13.93;13.03;;;20.50;99.90;;;;;;4975361;23;20296;-79
2021/07/09 09:13:07;;;;;;;13.63;12.73;;;20.60;99.90;;;;;;5008577;28;20181;-79
2021/07/09 09:15:35;;;;;;;13.50;12.60;;;20.40;99.90;;;;;;5002784;28;20209;-79
2021/07/09 09:18:03;;;;;;;12.80;12.00;;;20.30;99.90;;;;;;5007672;28;20220;-79
2021/07/09 09:20:30;;;;;;;12.93;12.13;;;20.20;99.90;;;;;;5006222;28;20315;-79
2021/07/09 09:23:01;;;;;;;13.67;12.77;;;20.10;99.90;;;;;;5001982;28;20582;-79
2021/07/09 09:25:31;;;;;;;14.00;13.20;;;20.10;99.90;;;;;;5004099;28;20198;-79
2021/07/09 09:28:11;;;;;;;13.77;12.87;;;20.20;99.90;;;;;;4993806;28;20199;-79
2021/07/09 09:30:39;;;;;;;13.57;12.67;;;20.40;99.90;;;;;;4999825;28;20224;-79
2021/07/09 09:33:08;;;;;;;13.23;12.43;;;20.70;99.90;;;;;;5004158;28;20192;-79
2021/07/09 09:35:37;;;;;;;13.37;12.57;;;20.90;99.90;;;;;;5011073;28;20195;-80
2021/07/09 09:38:07;;;;;;;13.27;12.47;;;21.10;99.90;;;;;;5002551;28;20222;-79
2021/07/09 09:40:36;;;;;;;13.23;12.30;;;21.40;99.90;;;;;;5003884;28;20220;-79
2021/07/09 09:43:08;;;;;;;13.37;12.47;;;21.30;99.90;;;;;;5005988;28;20231;-80
2021/07/09 09:45:36;;;;;;;12.90;12.00;;;21.00;99.90;;;;;;5005169;28;20218;-79
2021/07/09 09:48:08;;;;;;;12.97;12.17;;;20.70;99.90;;;;;;5007069;28;20270;-78
2021/07/09 09:50:45;;;;;;;12.60;11.90;;;20.50;99.90;;;;;;5001361;28;20266;-78
2021/07/09 09:53:12;;;;;;;12.93;12.07;;;20.40;99.90;;;;;;5003815;28;20250;-79
2021/07/09 09:55:40;;;;;;;12.80;12.10;;;20.50;99.90;;;;;;5004174;28;20244;-79
2021/07/09 09:58:18;;;;;;;13.10;12.30;;;20.70;99.90;;;;;;4995606;28;20260;-81
2021/07/09 10:00:47;;;;;;;12.83;12.03;;;21.10;99.90;;;;;;5002273;28;20306;-79
2021/07/09 10:03:14;;;;;;;12.67;11.87;;;21.80;99.90;;;;;;5003269;28;20221;-79
2021/07/09 10:05:43;;;;;;;11.53;10.63;;;22.30;99.90;;;;;;5006830;28;20193;-80
2021/07/09 10:08:11;;;;;;;10.10;9.30;;;22.60;99.90;;;;;;4994773;28;20204;-80
2021/07/09 10:10:39;;;;;;;13.37;12.37;;;23.00;99.90;;;;;;4998995;28;20225;-80
2021/07/09 10:13:07;;;;;;;5.47;4.67;;;23.40;99.90;;;;;;4997857;28;20202;-80
2021/07/09 10:15:35;;;;;;;6.30;4.87;;;23.30;99.90;;;;;;4998820;28;20193;-80
2021/07/09 10:18:03;;;;;;;11.47;10.53;;;23.10;99.90;;;;;;5005044;28;20192;-80
2021/07/09 10:20:30;;;;;;;11.80;10.97;;;22.80;99.90;;;;;;5006479;28;20688;-79
2021/07/09 10:22:59;;;;;;;6.53;5.93;;;22.50;99.90;;;;;;5015070;28;20204;-80
2021/07/09 10:25:28;;;;;;;5.73;4.73;;;22.40;99.90;;;;;;5014827;28;20246;-79
2021/07/09 10:27:55;;;;;;;13.20;12.30;;;22.20;99.90;;;;;;5010728;28;20196;-79
2021/07/09 10:30:22;;;;;;;13.20;12.40;;;21.90;99.90;;;;;;5008589;28;20216;-79
2021/07/09 10:32:53;;;;;;;13.40;12.40;;;21.60;99.90;;;;;;5008534;28;20276;-79
2021/07/09 10:35:34;;;;;;;15.07;13.50;;;21.30;99.90;;;;;;4999940;28;20193;-79
2021/07/09 10:38:11;;;;;;;14.13;13.13;;;21.00;99.90;;;;;;4993741;28;20204;-79
2021/07/09 10:40:40;;;;;;;14.00;13.00;;;20.80;99.90;;;;;;5000131;28;20306;-79
2021/07/09 10:43:10;;;;;;;14.07;12.90;;;20.60;99.90;;;;;;5001264;28;20220;-79
2021/07/09 10:45:37;;;;;;;13.90;12.90;;;20.40;99.90;;;;;;5003766;28;20243;-79
2021/07/09 10:48:10;;;;;;;13.73;12.83;;;20.40;99.90;;;;;;5002585;28;20215;-79
2021/07/09 10:50:40;;;;;;;14.60;13.60;;;20.70;99.90;;;;;;5002631;28;20688;-80
2021/07/09 10:53:19;;;;;;;15.13;13.73;;;20.90;99.90;;;;;;5002715;28;20199;-79
2021/07/09 10:55:54;;;;;;;14.83;13.83;;;21.20;99.90;;;;;;5007062;28;20199;-79
2021/07/09 10:58:27;;;;;;;14.17;13.27;;;21.20;99.90;;;;;;5004593;28;20687;-80
2021/07/09 11:00:55;;;;;;;14.67;13.67;;;21.60;99.90;;;;;;5000353;28;20568;-79
2021/07/09 11:03:26;;;;;;;15.77;14.57;;;22.00;99.90;;;;;;5000588;28;20570;-79
2021/07/09 11:06:00;;;;;;;6.90;6.20;;;22.30;99.90;;;;;;5003197;28;20193;-79
2021/07/09 11:08:42;;;;;;;10.03;6.50;;;22.80;99.90;;;;;;5001015;28;20185;-80
2021/07/09 11:11:11;;;;;;;14.90;13.90;;;23.30;99.90;;;;;;4994157;28;20715;-80
2021/07/09 11:13:55;;;;;;;6.27;5.67;;;23.60;99.90;;;;;;5000878;28;20203;-79
2021/07/09 11:16:27;;;;;;;6.10;5.50;;;23.70;99.90;;;;;;4996654;28;20604;-80
2021/07/09 11:18:57;;;;;;;5.83;5.33;;;23.60;99.90;;;;;;5003582;28;20552;-79
2021/07/09 11:21:55;;;;;;;5.60;5.00;;;23.60;99.90;;;;;;5001331;28;20208;-80
2021/07/09 11:24:24;;;;;;;6.17;5.60;;;23.50;99.90;;;;;;4980899;28;20232;-80
2021/07/09 11:26:52;;;;;;;13.37;12.47;;;23.80;99.90;;;;;;5003319;28;20194;-80
2021/07/09 11:29:22;;;;;;;7.87;5.30;;;24.30;99.90;;;;;;5000797;28;20252;-80
2021/07/09 11:31:49;;;;;;;6.40;5.23;;;24.50;99.90;;;;;;5004016;28;20194;-79
2021/07/09 11:34:19;;;;;;;7.67;5.23;;;24.50;99.90;;;;;;5001735;28;20187;-79
2021/07/09 11:36:47;;;;;;;5.67;5.07;;;24.60;99.90;;;;;;5002077;28;20208;-80
2021/07/09 11:39:16;;;;;;;5.10;4.70;;;24.70;99.90;;;;;;4999736;28;20200;-79
2021/07/09 11:41:55;;;;;;;10.13;9.33;;;24.80;99.90;;;;;;4998076;28;20580;-80
2021/07/09 11:44:23;;;;;;;13.40;12.50;;;25.10;99.90;;;;;;5008027;28;20220;-80
2021/07/09 11:46:53;;;;;;;13.63;12.70;;;25.10;99.90;;;;;;5001352;28;20216;-80
2021/07/09 11:49:23;;;;;;;12.90;12.10;;;25.10;99.90;;;;;;5002454;28;20192;-80
2021/07/09 11:51:52;;;;;;;13.03;12.23;;;25.10;99.90;;;;;;5006703;28;20654;-81
2021/07/09 11:54:27;;;;;;;13.27;12.27;;;25.10;99.90;;;;;;5004315;28;20706;-80
2021/07/09 11:57:02;;;;;;;12.40;11.60;;;25.20;99.90;;;;;;5004042;28;20197;-80
2021/07/09 11:59:31;;;;;;;10.03;9.20;;;25.10;99.90;;;;;;5004235;28;20703;-79
2021/07/09 12:02:13;;;;;;;8.63;8.03;;;24.70;99.90;;;;;;4999118;28;20200;-79
2021/07/09 12:04:44;;;;;;;10.33;9.63;;;24.50;99.90;;;;;;5002276;28;20231;-80
2021/07/09 12:07:32;;;;;;;11.63;10.83;;;24.60;99.90;;;;;;5003691;28;20664;-80
2021/07/09 12:10:03;;;;;;;11.57;10.87;;;24.80;99.90;;;;;;4993145;28;20230;-79
2021/07/09 12:12:34;;;;;;;5.43;4.97;;;24.90;99.90;;;;;;4999827;28;20202;-80
2021/07/09 12:15:10;;;;;;;4.40;4.00;;;24.90;99.90;;;;;;4984640;28;20217;-79
2021/07/09 12:17:39;;;;;;;10.03;9.17;;;24.90;99.90;;;;;;4982314;28;20275;-80
2021/07/09 12:20:11;;;;;;;13.03;12.13;;;24.70;99.90;;;;;;4988930;28;20219;-80
2021/07/09 12:22:39;;;;;;;10.90;10.00;;;24.90;99.90;;;;;;5004379;28;20218;-80
2021/07/09 12:25:11;;;;;;;11.70;11.00;;;24.90;99.90;;;;;;5008140;28;20689;-76
2021/07/09 12:27:39;;;;;;;10.80;10.13;;;24.90;99.90;;;;;;5006300;28;20189;-76
2021/07/09 12:30:09;;;;;;;11.43;10.63;;;24.70;99.90;;;;;;5009289;28;20732;-77
2021/07/09 12:33:00;;;;;;;11.07;10.33;;;24.60;99.90;;;;;;5003134;28;20188;-77
2021/07/09 12:35:31;;;;;;;5.17;4.77;;;24.30;99.90;;;;;;5005039;28;20227;-77
2021/07/09 12:38:04;;;;;;;9.93;9.33;;;24.50;99.90;;;;;;4992155;28;20274;-78
2021/07/09 12:40:35;;;;;;;9.03;8.33;;;24.60;99.90;;;;;;5003955;28;20219;-77
2021/07/09 12:43:17;;;;;;;7.63;7.03;;;24.60;99.90;;;;;;5006099;28;20230;-77
2021/07/09 12:45:53;;;;;;;10.00;9.30;;;24.40;99.90;;;;;;4995349;28;20194;-77
2021/07/09 12:48:32;;;;;;;10.40;9.80;;;24.20;99.90;;;;;;4997611;28;20204;-77
2021/07/09 12:51:13;;;;;;;11.00;10.30;;;24.10;99.90;;;;;;4996371;28;20552;-76
2021/07/09 12:53:50;;;;;;;11.03;10.23;;;24.20;99.90;;;;;;5001168;28;20187;-76
2021/07/09 12:56:18;;;;;;;10.90;10.10;;;24.10;99.90;;;;;;5006712;28;20196;-77
2021/07/09 12:58:47;;;;;;;11.00;10.30;;;24.10;99.90;;;;;;5005765;28;20204;-76
2021/07/09 13:01:16;;;;;;;12.20;11.30;;;24.20;99.90;;;;;;5006560;28;20235;-77
2021/07/09 13:03:45;;;;;;;10.80;10.07;;;24.30;99.90;;;;;;4992099;28;20217;-78
2021/07/09 13:06:17;;;;;;;10.80;10.07;;;24.50;99.90;;;;;;4989213;28;20230;-78
2021/07/09 13:08:45;;;;;;;11.10;10.30;;;24.70;99.90;;;;;;4999803;28;20189;-77
2021/07/09 13:11:15;;;;;;;7.03;6.53;;;24.90;99.90;;;;;;5003006;28;20216;-77
2021/07/09 13:13:48;;;;;;;15.73;14.60;;;25.10;99.90;;;;;;5004994;28;20717;-77
2021/07/09 13:16:16;;;;;;;4.27;3.87;;;25.40;99.90;;;;;;5003724;28;20209;-81
2021/07/09 13:18:52;;;;;;;4.17;3.87;;;25.40;99.90;;;;;;5007548;28;20250;-79
2021/07/09 13:21:22;;;;;;;5.33;4.27;;;25.40;99.90;;;;;;4997292;28;20205;-79
2021/07/09 13:24:05;;;;;;;4.17;3.83;;;25.30;99.90;;;;;;5007853;28;20628;-79
2021/07/09 13:26:36;;;;;;;7.27;6.77;;;25.30;99.90;;;;;;5001527;28;20204;-79
2021/07/09 13:29:03;;;;;;;4.43;4.13;;;25.40;99.90;;;;;;5004082;28;20255;-79
2021/07/09 13:31:30;;;;;;;9.70;9.00;;;25.70;99.90;;;;;;5005198;28;20217;-79
2021/07/09 13:33:57;;;;;;;9.47;8.87;;;25.90;99.90;;;;;;4992341;28;20192;-79
2021/07/09 13:36:34;;;;;;;9.73;9.00;;;26.00;99.90;;;;;;5001352;28;20212;-79
2021/07/09 13:39:03;;;;;;;10.00;9.40;;;26.10;99.90;;;;;;4991843;28;20192;-80
2021/07/09 13:41:29;;;;;;;9.67;9.03;;;26.20;99.90;;;;;;4996212;28;20196;-80
2021/07/09 13:43:56;;;;;;;6.13;5.73;;;26.10;99.90;;;;;;4992352;28;20693;-79
2021/07/09 13:46:23;;;;;;;6.20;5.80;;;26.10;99.90;;;;;;5002423;28;20200;-79
2021/07/09 13:48:51;;;;;;;10.90;10.20;;;26.10;99.90;;;;;;5004137;28;20189;-79
2021/07/09 13:51:18;;;;;;;9.40;8.80;;;26.10;99.90;;;;;;5004331;28;20220;-79
2021/07/09 13:53:47;;;;;;;9.10;8.50;;;25.80;99.90;;;;;;5000660;28;20197;-79
2021/07/09 13:56:14;;;;;;;9.13;8.63;;;25.40;99.90;;;;;;5004130;28;20259;-79
2021/07/09 13:58:41;;;;;;;9.83;9.20;;;25.20;99.90;;;;;;4975755;28;20228;-78
2021/07/09 14:01:08;;;;;;;9.90;9.20;;;25.10;99.90;;;;;;4987474;28;20217;-78
2021/07/09 14:03:36;;;;;;;8.87;8.37;;;25.10;99.90;;;;;;4987193;28;20205;-79
2021/07/09 14:06:03;;;;;;;8.90;8.40;;;25.10;99.90;;;;;;4986596;28;20241;-79
2021/07/09 14:08:30;;;;;;;9.87;9.07;;;25.00;99.90;;;;;;4987730;28;20220;-79
2021/07/09 14:11:00;;;;;;;10.30;9.60;;;24.80;99.90;;;;;;4989978;28;20250;-77
2021/07/09 14:13:27;;;;;;;11.00;10.30;;;24.30;99.90;;;;;;4987144;28;20208;-77
2021/07/09 14:15:54;;;;;;;11.20;10.50;;;24.00;99.90;;;;;;4997016;28;20782;-77
2021/07/09 14:18:22;;;;;;;10.80;10.20;;;23.70;99.90;;;;;;5005959;28;20200;-74
2021/07/09 14:20:50;;;;;;;11.23;10.50;;;23.50;99.90;;;;;;5001500;28;20280;-76
2021/07/09 14:23:18;;;;;;;10.67;9.87;;;23.30;99.90;;;;;;4986904;28;20215;-77
2021/07/09 14:25:46;;;;;;;11.10;10.20;;;23.10;99.90;;;;;;4994603;28;20214;-76
2021/07/09 14:28:14;;;;;;;10.10;9.50;;;23.10;99.90;;;;;;4985716;28;20260;-77
2021/07/09 14:30:41;;;;;;;10.40;9.80;;;23.00;99.90;;;;;;5000983;28;20581;-77
2021/07/09 14:33:08;;;;;;;10.97;10.27;;;23.00;99.90;;;;;;5001338;28;20595;-77
2021/07/09 14:35:36;;;;;;;10.87;10.17;;;23.00;99.90;;;;;;4994458;28;20193;-77
2021/07/09 14:38:04;;;;;;;11.03;10.33;;;23.00;99.90;;;;;;4990997;28;20211;-77
2021/07/09 14:40:32;;;;;;;11.00;10.30;;;23.00;99.90;;;;;;4997025;28;20232;-77
2021/07/09 14:43:00;;;;;;;10.97;10.27;;;22.90;99.90;;;;;;4984303;28;20192;-76
2021/07/09 14:45:28;;;;;;;11.07;10.27;;;22.90;99.90;;;;;;5002476;28;20204;-77
2021/07/09 14:47:55;;;;;;;11.37;10.47;;;22.80;99.90;;;;;;4989639;28;20578;-77
2021/07/09 14:50:23;;;;;;;11.27;10.50;;;22.60;99.90;;;;;;4997558;28;20708;-79
2021/07/09 14:52:50;;;;;;;11.03;10.23;;;22.50;99.90;;;;;;4997526;28;20198;-79
2021/07/09 14:55:17;;;;;;;11.43;10.50;;;22.20;99.90;;;;;;5007884;28;20239;-79
2021/07/09 14:57:45;;;;;;;11.40;10.50;;;22.20;99.90;;;;;;4985850;28;20209;-76